Father Pat — WDG2791 — position and weather

sailwx.info

Track history (hours):
 
Tides and Currents Weather Stations Pressure Air Temp Water Temp Dewpoint Dewpoint Depression Visibility Wind Speed Wind Dir Waves Ship Positions

Father Pat

Owner: Marquette Transportation Company Gulf-Inland, LLC, Jefferson, LA. More information available from US FCC via Universal Licensing System and Coast Guard Vessel Documentation Center.

Last reported at 2015-Dec-27 08:04 UTC. Time now 2016-Feb-06 09:21 UTC.
Position N 29°60' W 093°47'.
Warning: this ship's position is 41 days out of date.

Type: Towing. MMSI: 367519320.

Date/timePositionNaut miles runAvg speedWind from/ knotsBaromVisibWave heightAir tempDewpointWater temp
2015-Dec-27 08:04N 29°60' W 093°47'4 6.0
2015-Dec-27 07:29N 30°02' W 093°44'5 5.0
2015-Dec-27 06:33N 30°04' W 093°39'3 3.1
2015-Dec-27 05:33N 30°04' W 093°36'6 5.5
2015-Dec-27 04:33N 30°04' W 093°29'6 5.7
2015-Dec-27 03:33N 30°04' W 093°23'4 4.1
2015-Dec-27 02:33N 30°07' W 093°20'4 3.5
2015-Dec-27 01:33N 30°10' W 093°19'5 4.7
2015-Dec-27 00:33N 30°13' W 093°15'1 0.7
2015-Dec-26 23:33N 30°14' W 093°15'0 0.0
2015-Dec-26 22:33N 30°14' W 093°15'0 0.0
2015-Dec-26 21:33N 30°14' W 093°15'0 0.0
2015-Dec-26 20:33N 30°14' W 093°15'0 0.0
2015-Dec-26 19:33N 30°14' W 093°15'0 0.0
2015-Dec-26 18:33N 30°14' W 093°15'0 0.0
2015-Dec-26 17:33N 30°14' W 093°15'0 0.0
2015-Dec-26 16:33N 30°14' W 093°15'0 0.1
2015-Dec-26 15:33N 30°14' W 093°15'0 0.1
2015-Dec-26 14:33N 30°14' W 093°15'0 0.0
2015-Dec-26 13:33N 30°14' W 093°15'0 0.0
2015-Dec-26 12:33N 30°14' W 093°15'0 0.0
2015-Dec-26 11:33N 30°14' W 093°15'0 0.0
2015-Dec-26 10:33N 30°14' W 093°15'0 0.0
2015-Dec-26 09:33N 30°14' W 093°15'0 0.0
2015-Dec-26 08:33N 30°14' W 093°15'0 0.0
2015-Dec-26 07:33N 30°14' W 093°15'0 0.0
2015-Dec-26 06:33N 30°14' W 093°15'0 0.0
2015-Dec-26 05:33N 30°14' W 093°15'0 0.0
2015-Dec-26 04:33N 30°14' W 093°15'0 0.0
2015-Dec-26 03:33N 30°14' W 093°15'0 0.0
2015-Dec-26 02:33N 30°14' W 093°15'0 0.0
2015-Dec-26 01:33N 30°14' W 093°15'0 0.0
2015-Dec-26 00:33N 30°14' W 093°15'0 0.0
2015-Dec-25 23:33N 30°14' W 093°15'0 0.0
2015-Dec-25 22:33N 30°14' W 093°15'0 0.0
2015-Dec-25 21:33N 30°14' W 093°15'0 0.0
2015-Dec-25 20:33N 30°14' W 093°15'0 0.0
2015-Dec-25 19:33N 30°14' W 093°15'0 0.0
2015-Dec-25 18:33N 30°14' W 093°15'0 0.0
2015-Dec-25 17:33N 30°14' W 093°15'0 0.0
2015-Dec-25 16:33N 30°14' W 093°15'0 0.0
2015-Dec-25 15:33N 30°14' W 093°15'0 0.0
2015-Dec-25 14:33N 30°14' W 093°15'0 0.0
2015-Dec-25 13:33N 30°14' W 093°15'0 0.0
2015-Dec-25 12:33N 30°14' W 093°15'0 0.0
2015-Dec-25 11:33N 30°14' W 093°15'0 0.0
2015-Dec-25 10:33N 30°14' W 093°15'0 0.0
2015-Dec-25 09:33N 30°14' W 093°15'0 0.0
2015-Dec-25 08:33N 30°14' W 093°15'0 0.0
2015-Dec-25 07:33N 30°14' W 093°15'0 0.0
2015-Dec-25 06:33N 30°14' W 093°15'0 0.0
2015-Dec-25 05:33N 30°14' W 093°15'0 0.0
2015-Dec-25 04:33N 30°14' W 093°15'0 0.0
2015-Dec-25 03:33N 30°14' W 093°15'0 0.0
2015-Dec-25 02:33N 30°14' W 093°15'0 0.0
2015-Dec-25 01:33N 30°14' W 093°15'0 0.0
2015-Dec-25 00:33N 30°14' W 093°15'0 0.0
2015-Dec-24 23:33N 30°14' W 093°15'0 0.0
2015-Dec-24 22:33N 30°14' W 093°15'0 0.0
2015-Dec-24 21:33N 30°14' W 093°15'0 0.0
2015-Dec-24 20:33N 30°14' W 093°15'0 0.1
2015-Dec-24 19:33N 30°14' W 093°15'0 0.1
2015-Dec-24 18:33N 30°14' W 093°15'0 0.0
2015-Dec-24 17:33N 30°14' W 093°15'0 0.1
2015-Dec-24 16:33N 30°14' W 093°15'0 0.0
2015-Dec-24 15:33N 30°14' W 093°15'0 0.0
2015-Dec-24 14:33N 30°14' W 093°15'0 0.0
2015-Dec-24 13:33N 30°14' W 093°15'0 0.0
2015-Dec-24 12:33N 30°14' W 093°15'0 0.0
2015-Dec-24 11:33N 30°14' W 093°15'0 0.0
2015-Dec-24 10:33N 30°14' W 093°15'0 0.0
2015-Dec-24 09:33N 30°14' W 093°15'0 0.0
2015-Dec-24 08:33N 30°14' W 093°15'0 0.0
2015-Dec-24 07:33N 30°14' W 093°15'0 0.0
2015-Dec-24 06:33N 30°14' W 093°15'0 0.0
2015-Dec-24 05:33N 30°14' W 093°15'0 0.0
2015-Dec-24 04:33N 30°14' W 093°15'0 0.1
2015-Dec-24 03:33N 30°14' W 093°15'3 2.6
2015-Dec-24 02:33N 30°12' W 093°17'6 5.7
2015-Dec-24 01:33N 30°07' W 093°20'4 3.7
2015-Dec-24 00:33N 30°04' W 093°21'4 4.1
2015-Dec-23 23:33N 30°04' W 093°26'4 4.3
2015-Dec-23 22:33N 30°04' W 093°31'5 4.5
2015-Dec-23 21:33N 30°04' W 093°36'5 5.0
2015-Dec-23 20:33N 30°03' W 093°42'  
Track history (hours):
 
Tides and Currents Weather Stations Pressure Air Temp Water Temp Dewpoint Dewpoint Depression Visibility Wind Speed Wind Dir Waves Ship Positions

Father Pat

Owner: Marquette Transportation Company Gulf-Inland, LLC, Jefferson, LA. More information available from US FCC via Universal Licensing System and Coast Guard Vessel Documentation Center.

Last reported at 2015-Dec-27 08:04 UTC. Time now 2016-Feb-06 09:21 UTC.
Position N 29°60' W 093°47'.
Warning: this ship's position is 41 days out of date.

Type: Towing. MMSI: 367519320.

Date/timePositionNaut miles runAvg speedWind from/ knotsBaromVisibWave heightAir tempDewpointWater temp
2015-Dec-27 08:04N 29°60' W 093°47'4 6.0
2015-Dec-27 07:29N 30°02' W 093°44'5 5.0
2015-Dec-27 06:33N 30°04' W 093°39'3 3.1
2015-Dec-27 05:33N 30°04' W 093°36'6 5.5
2015-Dec-27 04:33N 30°04' W 093°29'6 5.7
2015-Dec-27 03:33N 30°04' W 093°23'4 4.1
2015-Dec-27 02:33N 30°07' W 093°20'4 3.5
2015-Dec-27 01:33N 30°10' W 093°19'5 4.7
2015-Dec-27 00:33N 30°13' W 093°15'1 0.7
2015-Dec-26 23:33N 30°14' W 093°15'0 0.0
2015-Dec-26 22:33N 30°14' W 093°15'0 0.0
2015-Dec-26 21:33N 30°14' W 093°15'0 0.0
2015-Dec-26 20:33N 30°14' W 093°15'0 0.0
2015-Dec-26 19:33N 30°14' W 093°15'0 0.0
2015-Dec-26 18:33N 30°14' W 093°15'0 0.0
2015-Dec-26 17:33N 30°14' W 093°15'0 0.0
2015-Dec-26 16:33N 30°14' W 093°15'0 0.1
2015-Dec-26 15:33N 30°14' W 093°15'0 0.1
2015-Dec-26 14:33N 30°14' W 093°15'0 0.0
2015-Dec-26 13:33N 30°14' W 093°15'0 0.0
2015-Dec-26 12:33N 30°14' W 093°15'0 0.0
2015-Dec-26 11:33N 30°14' W 093°15'0 0.0
2015-Dec-26 10:33N 30°14' W 093°15'0 0.0
2015-Dec-26 09:33N 30°14' W 093°15'0 0.0
2015-Dec-26 08:33N 30°14' W 093°15'0 0.0
2015-Dec-26 07:33N 30°14' W 093°15'0 0.0
2015-Dec-26 06:33N 30°14' W 093°15'0 0.0
2015-Dec-26 05:33N 30°14' W 093°15'0 0.0
2015-Dec-26 04:33N 30°14' W 093°15'0 0.0
2015-Dec-26 03:33N 30°14' W 093°15'0 0.0
2015-Dec-26 02:33N 30°14' W 093°15'0 0.0
2015-Dec-26 01:33N 30°14' W 093°15'0 0.0
2015-Dec-26 00:33N 30°14' W 093°15'0 0.0
2015-Dec-25 23:33N 30°14' W 093°15'0 0.0
2015-Dec-25 22:33N 30°14' W 093°15'0 0.0
2015-Dec-25 21:33N 30°14' W 093°15'0 0.0
2015-Dec-25 20:33N 30°14' W 093°15'0 0.0
2015-Dec-25 19:33N 30°14' W 093°15'0 0.0
2015-Dec-25 18:33N 30°14' W 093°15'0 0.0
2015-Dec-25 17:33N 30°14' W 093°15'0 0.0
2015-Dec-25 16:33N 30°14' W 093°15'0 0.0
2015-Dec-25 15:33N 30°14' W 093°15'0 0.0
2015-Dec-25 14:33N 30°14' W 093°15'0 0.0
2015-Dec-25 13:33N 30°14' W 093°15'0 0.0
2015-Dec-25 12:33N 30°14' W 093°15'0 0.0
2015-Dec-25 11:33N 30°14' W 093°15'0 0.0
2015-Dec-25 10:33N 30°14' W 093°15'0 0.0
2015-Dec-25 09:33N 30°14' W 093°15'0 0.0
2015-Dec-25 08:33N 30°14' W 093°15'0 0.0
2015-Dec-25 07:33N 30°14' W 093°15'0 0.0
2015-Dec-25 06:33N 30°14' W 093°15'0 0.0
2015-Dec-25 05:33N 30°14' W 093°15'0 0.0
2015-Dec-25 04:33N 30°14' W 093°15'0 0.0
2015-Dec-25 03:33N 30°14' W 093°15'0 0.0
2015-Dec-25 02:33N 30°14' W 093°15'0 0.0
2015-Dec-25 01:33N 30°14' W 093°15'0 0.0
2015-Dec-25 00:33N 30°14' W 093°15'0 0.0
2015-Dec-24 23:33N 30°14' W 093°15'0 0.0
2015-Dec-24 22:33N 30°14' W 093°15'0 0.0
2015-Dec-24 21:33N 30°14' W 093°15'0 0.0
2015-Dec-24 20:33N 30°14' W 093°15'0 0.1
2015-Dec-24 19:33N 30°14' W 093°15'0 0.1
2015-Dec-24 18:33N 30°14' W 093°15'0 0.0
2015-Dec-24 17:33N 30°14' W 093°15'0 0.1
2015-Dec-24 16:33N 30°14' W 093°15'0 0.0
2015-Dec-24 15:33N 30°14' W 093°15'0 0.0
2015-Dec-24 14:33N 30°14' W 093°15'0 0.0
2015-Dec-24 13:33N 30°14' W 093°15'0 0.0
2015-Dec-24 12:33N 30°14' W 093°15'0 0.0
2015-Dec-24 11:33N 30°14' W 093°15'0 0.0
2015-Dec-24 10:33N 30°14' W 093°15'0 0.0
2015-Dec-24 09:33N 30°14' W 093°15'0 0.0
2015-Dec-24 08:33N 30°14' W 093°15'0 0.0
2015-Dec-24 07:33N 30°14' W 093°15'0 0.0
2015-Dec-24 06:33N 30°14' W 093°15'0 0.0
2015-Dec-24 05:33N 30°14' W 093°15'0 0.0
2015-Dec-24 04:33N 30°14' W 093°15'0 0.1
2015-Dec-24 03:33N 30°14' W 093°15'3 2.6
2015-Dec-24 02:33N 30°12' W 093°17'6 5.7
2015-Dec-24 01:33N 30°07' W 093°20'4 3.7
2015-Dec-24 00:33N 30°04' W 093°21'4 4.1
2015-Dec-23 23:33N 30°04' W 093°26'4 4.3
2015-Dec-23 22:33N 30°04' W 093°31'5 4.5
2015-Dec-23 21:33N 30°04' W 093°36'5 5.0
2015-Dec-23 20:33N 30°03' W 093°42'  

Dump ship's entire track history